Terminal Aerodrome Forecast
Issued by NWS Green Bay, WI

Home | Current Version | Previous Version | Text Only | Print | Product List | Glossary On
Versions: 1 2 3 4 5 6 7 8 9 10 11 12 13 14 15 16 17 18 19 20 21 22 23 24 25 26 27 28 29 30 31 32 33 34 35 36 37 38 39 40 41 42 43
000
FTUS43 KGRB 010156 AAA
TAFGRB
TAF AMD
KGRB 010156Z 0102/0124 02009KT P6SM BKN030
     FM010300 36007KT P6SM SCT035
     FM012200 07007KT P6SM SKC=

USA.gov is the U.S. government's official web portal to all federal, state and local government web resources and services.